sensor_id;sensor_type;location;lat;lon;timestamp;pressure;altitude;pressure_sealevel;temperature;humidity
46023;BME280;31756;47.936;16.224;2023-01-30T00:00:55;99187.06;;;-5.90;100.00
46023;BME280;31756;47.936;16.224;2023-01-30T00:03:21;99183.81;;;-6.18;100.00
46023;BME280;31756;47.936;16.224;2023-01-30T00:05:47;99173.19;;;-6.30;100.00
46023;BME280;31756;47.936;16.224;2023-01-30T00:08:13;99195.63;;;-6.30;100.00
46023;BME280;31756;47.936;16.224;2023-01-30T00:10:39;99190.88;;;-6.40;100.00
46023;BME280;31756;47.936;16.224;2023-01-30T00:13:04;99186.50;;;-6.44;100.00
46023;BME280;31756;47.936;16.224;2023-01-30T00:15:30;99180.59;;;-6.47;100.00
46023;BME280;31756;47.936;16.224;2023-01-30T00:17:55;99180.44;;;-6.50;100.00
46023;BME280;31756;47.936;16.224;2023-01-30T00:20:21;99176.09;;;-6.52;100.00
46023;BME280;31756;47.936;16.224;2023-01-30T00:22:46;99168.72;;;-6.51;100.00
46023;BME280;31756;47.936;16.224;2023-01-30T00:25:12;99165.00;;;-6.57;100.00
46023;BME280;31756;47.936;16.224;2023-01-30T00:27:37;99172.44;;;-6.59;100.00
46023;BME280;31756;47.936;16.224;2023-01-30T00:30:03;99163.38;;;-6.57;100.00
46023;BME280;31756;47.936;16.224;2023-01-30T00:32:30;99147.66;;;-6.56;100.00
46023;BME280;31756;47.936;16.224;2023-01-30T00:34:56;99151.78;;;-6.56;100.00
46023;BME280;31756;47.936;16.224;2023-01-30T00:37:21;99155.66;;;-6.61;100.00
46023;BME280;31756;47.936;16.224;2023-01-30T00:39:47;99154.22;;;-6.58;100.00
46023;BME280;31756;47.936;16.224;2023-01-30T00:42:13;99125.66;;;-6.63;100.00
46023;BME280;31756;47.936;16.224;2023-01-30T00:44:57;99140.28;;;-6.54;100.00
46023;BME280;31756;47.936;16.224;2023-01-30T00:47:41;99137.84;;;-6.53;100.00
46023;BME280;31756;47.936;16.224;2023-01-30T00:50:07;99134.31;;;-6.56;100.00
46023;BME280;31756;47.936;16.224;2023-01-30T00:52:34;99134.44;;;-6.55;100.00
46023;BME280;31756;47.936;16.224;2023-01-30T00:54:59;99129.28;;;-6.58;100.00
46023;BME280;31756;47.936;16.224;2023-01-30T00:57:25;99124.44;;;-6.55;100.00
46023;BME280;31756;47.936;16.224;2023-01-30T00:59:50;99123.50;;;-6.57;100.00
46023;BME280;31756;47.936;16.224;2023-01-30T01:02:16;99123.59;;;-6.55;100.00
46023;BME280;31756;47.936;16.224;2023-01-30T01:04:41;99112.06;;;-6.53;100.00
46023;BME280;31756;47.936;16.224;2023-01-30T01:07:11;99112.31;;;-6.49;100.00
46023;BME280;31756;47.936;16.224;2023-01-30T01:09:36;99104.81;;;-6.49;100.00
46023;BME280;31756;47.936;16.224;2023-01-30T01:12:03;99108.28;;;-6.47;100.00
46023;BME280;31756;47.936;16.224;2023-01-30T01:14:29;99106.56;;;-6.48;100.00
46023;BME280;31756;47.936;16.224;2023-01-30T01:16:54;99098.16;;;-6.50;100.00
46023;BME280;31756;47.936;16.224;2023-01-30T01:19:21;99096.72;;;-6.44;100.00
46023;BME280;31756;47.936;16.224;2023-01-30T01:21:46;99082.72;;;-6.42;100.00
46023;BME280;31756;47.936;16.224;2023-01-30T01:24:12;99074.38;;;-6.43;100.00
46023;BME280;31756;47.936;16.224;2023-01-30T01:26:39;99074.53;;;-6.40;100.00
46023;BME280;31756;47.936;16.224;2023-01-30T01:29:12;99071.53;;;-6.34;100.00
46023;BME280;31756;47.936;16.224;2023-01-30T01:31:38;99057.34;;;-6.35;100.00
46023;BME280;31756;47.936;16.224;2023-01-30T01:34:03;99057.53;;;-6.32;100.00
46023;BME280;31756;47.936;16.224;2023-01-30T01:36:29;99057.69;;;-6.29;100.00
46023;BME280;31756;47.936;16.224;2023-01-30T01:38:54;99053.47;;;-6.30;100.00
46023;BME280;31756;47.936;16.224;2023-01-30T01:41:20;99049.19;;;-6.33;100.00
46023;BME280;31756;47.936;16.224;2023-01-30T01:46:42;99047.81;;;-6.42;100.00
46023;BME280;31756;47.936;16.224;2023-01-30T01:49:14;99043.09;;;-6.38;100.00
46023;BME280;31756;47.936;16.224;2023-01-30T01:51:43;99037.06;;;-6.41;100.00
46023;BME280;31756;47.936;16.224;2023-01-30T01:54:12;99037.06;;;-6.41;100.00
46023;BME280;31756;47.936;16.224;2023-01-30T01:56:41;99028.78;;;-6.40;100.00
46023;BME280;31756;47.936;16.224;2023-01-30T01:59:10;99034.75;;;-6.38;100.00
46023;BME280;31756;47.936;16.224;2023-01-30T02:01:36;99023.13;;;-6.38;100.00
46023;BME280;31756;47.936;16.224;2023-01-30T02:04:02;99030.66;;;-6.36;100.00
46023;BME280;31756;47.936;16.224;2023-01-30T02:06:29;99025.09;;;-6.32;100.00
46023;BME280;31756;47.936;16.224;2023-01-30T02:08:57;99021.50;;;-6.37;100.00
46023;BME280;31756;47.936;16.224;2023-01-30T02:13:49;99015.41;;;-6.42;100.00
46023;BME280;31756;47.936;16.224;2023-01-30T02:16:15;99018.00;;;-6.41;100.00
46023;BME280;31756;47.936;16.224;2023-01-30T02:18:43;99005.53;;;-6.41;100.00
46023;BME280;31756;47.936;16.224;2023-01-30T02:29:37;98997.47;;;-6.35;100.00
46023;BME280;31756;47.936;16.224;2023-01-30T02:32:17;98992.44;;;-6.37;100.00
46023;BME280;31756;47.936;16.224;2023-01-30T02:34:53;98976.59;;;-6.37;100.00
46023;BME280;31756;47.936;16.224;2023-01-30T02:37:26;98975.66;;;-6.39;100.00
46023;BME280;31756;47.936;16.224;2023-01-30T02:40:04;98968.28;;;-6.38;100.00
46023;BME280;31756;47.936;16.224;2023-01-30T02:42:46;98973.16;;;-6.39;100.00
46023;BME280;31756;47.936;16.224;2023-01-30T02:45:17;98971.69;;;-6.36;100.00
46023;BME280;31756;47.936;16.224;2023-01-30T02:47:49;98977.53;;;-6.35;100.00
46023;BME280;31756;47.936;16.224;2023-01-30T02:50:19;98969.75;;;-6.41;100.00
46023;BME280;31756;47.936;16.224;2023-01-30T02:52:47;98970.44;;;-6.44;100.00
46023;BME280;31756;47.936;16.224;2023-01-30T02:55:17;98969.50;;;-6.46;100.00
46023;BME280;31756;47.936;16.224;2023-01-30T02:57:43;98964.53;;;-6.46;100.00
46023;BME280;31756;47.936;16.224;2023-01-30T03:00:08;98960.84;;;-6.36;100.00
46023;BME280;31756;47.936;16.224;2023-01-30T03:10:33;98945.50;;;-6.44;100.00
46023;BME280;31756;47.936;16.224;2023-01-30T03:16:08;98930.53;;;-6.44;100.00
46023;BME280;31756;47.936;16.224;2023-01-30T03:18:35;98930.63;;;-6.42;100.00
46023;BME280;31756;47.936;16.224;2023-01-30T03:21:04;98925.25;;;-6.50;100.00
46023;BME280;31756;47.936;16.224;2023-01-30T03:23:30;98912.59;;;-6.53;100.00
46023;BME280;31756;47.936;16.224;2023-01-30T03:25:56;98900.50;;;-6.62;100.00
46023;BME280;31756;47.936;16.224;2023-01-30T03:28:21;98910.47;;;-6.62;100.00
46023;BME280;31756;47.936;16.224;2023-01-30T03:30:48;98905.34;;;-6.65;100.00
46023;BME280;31756;47.936;16.224;2023-01-30T03:33:13;98901.06;;;-6.67;100.00
46023;BME280;31756;47.936;16.224;2023-01-30T03:35:45;98896.22;;;-6.64;100.00
46023;BME280;31756;47.936;16.224;2023-01-30T03:38:11;98899.34;;;-6.68;100.00
46023;BME280;31756;47.936;16.224;2023-01-30T03:40:37;98900.88;;;-6.70;100.00
46023;BME280;31756;47.936;16.224;2023-01-30T03:43:03;98902.38;;;-6.74;100.00
46023;BME280;31756;47.936;16.224;2023-01-30T03:45:29;98894.75;;;-6.77;100.00
46023;BME280;31756;47.936;16.224;2023-01-30T03:47:55;98901.19;;;-6.80;100.00
46023;BME280;31756;47.936;16.224;2023-01-30T03:50:20;98895.34;;;-6.81;100.00
46023;BME280;31756;47.936;16.224;2023-01-30T03:52:46;98903.78;;;-6.79;100.00
46023;BME280;31756;47.936;16.224;2023-01-30T03:55:15;98901.34;;;-6.77;100.00
46023;BME280;31756;47.936;16.224;2023-01-30T03:57:40;98898.19;;;-6.75;100.00
46023;BME280;31756;47.936;16.224;2023-01-30T04:00:07;98896.06;;;-6.83;100.00
46023;BME280;31756;47.936;16.224;2023-01-30T04:02:41;98886.34;;;-6.79;100.00
46023;BME280;31756;47.936;16.224;2023-01-30T04:05:07;98887.72;;;-6.84;100.00
46023;BME280;31756;47.936;16.224;2023-01-30T04:07:33;98878.38;;;-6.88;100.00
46023;BME280;31756;47.936;16.224;2023-01-30T04:09:59;98879.31;;;-6.70;100.00
46023;BME280;31756;47.936;16.224;2023-01-30T04:12:24;98874.03;;;-6.76;100.00
46023;BME280;31756;47.936;16.224;2023-01-30T04:14:54;98869.41;;;-6.84;100.00
46023;BME280;31756;47.936;16.224;2023-01-30T04:17:43;98859.47;;;-6.84;100.00
46023;BME280;31756;47.936;16.224;2023-01-30T04:20:31;98866.69;;;-6.89;100.00
46023;BME280;31756;47.936;16.224;2023-01-30T04:22:58;98854.38;;;-6.70;100.00
46023;BME280;31756;47.936;16.224;2023-01-30T04:25:25;98841.06;;;-6.70;100.00
46023;BME280;31756;47.936;16.224;2023-01-30T04:27:51;98842.78;;;-6.69;100.00
46023;BME280;31756;47.936;16.224;2023-01-30T04:30:20;98831.28;;;-6.67;100.00
46023;BME280;31756;47.936;16.224;2023-01-30T04:32:48;98830.66;;;-6.47;100.00
46023;BME280;31756;47.936;16.224;2023-01-30T04:35:14;98822.78;;;-6.55;100.00
46023;BME280;31756;47.936;16.224;2023-01-30T04:37:39;98822.31;;;-6.48;100.00
46023;BME280;31756;47.936;16.224;2023-01-30T04:40:06;98807.97;;;-6.52;100.00
46023;BME280;31756;47.936;16.224;2023-01-30T04:42:33;98816.84;;;-6.57;100.00
46023;BME280;31756;47.936;16.224;2023-01-30T04:45:19;98819.97;;;-6.61;100.00
46023;BME280;31756;47.936;16.224;2023-01-30T04:47:45;98817.94;;;-6.68;100.00
46023;BME280;31756;47.936;16.224;2023-01-30T04:50:11;98809.47;;;-6.55;100.00
46023;BME280;31756;47.936;16.224;2023-01-30T04:52:37;98810.59;;;-6.49;100.00
46023;BME280;31756;47.936;16.224;2023-01-30T04:55:03;98815.53;;;-6.50;100.00
46023;BME280;31756;47.936;16.224;2023-01-30T04:57:28;98816.16;;;-6.54;100.00
46023;BME280;31756;47.936;16.224;2023-01-30T04:59:54;98816.00;;;-6.57;100.00
46023;BME280;31756;47.936;16.224;2023-01-30T05:02:19;98818.50;;;-6.41;100.00
46023;BME280;31756;47.936;16.224;2023-01-30T05:04:47;98819.72;;;-6.49;100.00
46023;BME280;31756;47.936;16.224;2023-01-30T05:07:12;98814.59;;;-6.52;100.00
46023;BME280;31756;47.936;16.224;2023-01-30T05:09:38;98814.44;;;-6.55;100.00
46023;BME280;31756;47.936;16.224;2023-01-30T05:12:03;98832.00;;;-6.54;100.00
46023;BME280;31756;47.936;16.224;2023-01-30T05:14:29;98835.25;;;-6.55;100.00
46023;BME280;31756;47.936;16.224;2023-01-30T05:16:54;98823.78;;;-6.51;100.00
46023;BME280;31756;47.936;16.224;2023-01-30T05:19:20;98809.69;;;-6.51;100.00
46023;BME280;31756;47.936;16.224;2023-01-30T05:21:45;98812.97;;;-6.52;100.00
46023;BME280;31756;47.936;16.224;2023-01-30T05:24:11;98814.81;;;-6.48;100.00
46023;BME280;31756;47.936;16.224;2023-01-30T05:26:36;98808.22;;;-6.47;100.00
46023;BME280;31756;47.936;16.224;2023-01-30T05:29:02;98793.34;;;-6.45;100.00
46023;BME280;31756;47.936;16.224;2023-01-30T05:31:27;98795.66;;;-6.49;100.00
46023;BME280;31756;47.936;16.224;2023-01-30T05:33:52;98794.88;;;-6.48;100.00
46023;BME280;31756;47.936;16.224;2023-01-30T05:36:19;98786.84;;;-6.42;100.00
46023;BME280;31756;47.936;16.224;2023-01-30T05:38:45;98788.63;;;-6.39;100.00
46023;BME280;31756;47.936;16.224;2023-01-30T05:41:11;98783.25;;;-6.31;100.00
46023;BME280;31756;47.936;16.224;2023-01-30T05:43:37;98775.75;;;-6.31;100.00
46023;BME280;31756;47.936;16.224;2023-01-30T05:46:03;98774.84;;;-6.15;100.00
46023;BME280;31756;47.936;16.224;2023-01-30T05:48:29;98774.84;;;-6.15;100.00
46023;BME280;31756;47.936;16.224;2023-01-30T05:50:55;98767.44;;;-6.14;100.00
46023;BME280;31756;47.936;16.224;2023-01-30T05:53:22;98770.16;;;-6.09;100.00
46023;BME280;31756;47.936;16.224;2023-01-30T05:56:09;98756.97;;;-6.07;100.00
46023;BME280;31756;47.936;16.224;2023-01-30T05:58:34;98748.03;;;-6.03;100.00
46023;BME280;31756;47.936;16.224;2023-01-30T06:01:00;98753.88;;;-6.03;100.00
46023;BME280;31756;47.936;16.224;2023-01-30T06:03:26;98765.75;;;-5.97;100.00
46023;BME280;31756;47.936;16.224;2023-01-30T06:05:51;98783.31;;;-5.95;100.00
46023;BME280;31756;47.936;16.224;2023-01-30T06:08:17;98783.53;;;-5.91;100.00
46023;BME280;31756;47.936;16.224;2023-01-30T06:10:42;98786.88;;;-5.90;100.00
46023;BME280;31756;47.936;16.224;2023-01-30T06:13:08;98795.59;;;-5.81;100.00
46023;BME280;31756;47.936;16.224;2023-01-30T06:15:35;98810.53;;;-5.82;100.00
46023;BME280;31756;47.936;16.224;2023-01-30T06:18:01;98799.69;;;-5.83;100.00
46023;BME280;31756;47.936;16.224;2023-01-30T06:20:26;98795.06;;;-5.75;100.00
46023;BME280;31756;47.936;16.224;2023-01-30T06:22:52;98762.91;;;-5.69;100.00
46023;BME280;31756;47.936;16.224;2023-01-30T06:25:17;98768.66;;;-5.70;100.00
46023;BME280;31756;47.936;16.224;2023-01-30T06:27:44;98760.66;;;-5.63;100.00
46023;BME280;31756;47.936;16.224;2023-01-30T06:30:09;98770.75;;;-5.62;100.00
46023;BME280;31756;47.936;16.224;2023-01-30T06:32:35;98772.59;;;-5.58;100.00
46023;BME280;31756;47.936;16.224;2023-01-30T06:35:00;98788.28;;;-5.60;100.00
46023;BME280;31756;47.936;16.224;2023-01-30T06:37:26;98794.41;;;-5.54;100.00
46023;BME280;31756;47.936;16.224;2023-01-30T06:39:51;98787.22;;;-5.47;100.00
46023;BME280;31756;47.936;16.224;2023-01-30T06:42:17;98770.00;;;-5.41;100.00
46023;BME280;31756;47.936;16.224;2023-01-30T06:44:42;98757.94;;;-5.32;100.00
46023;BME280;31756;47.936;16.224;2023-01-30T06:47:08;98750.50;;;-5.31;100.00
46023;BME280;31756;47.936;16.224;2023-01-30T06:49:33;98741.50;;;-5.27;100.00
46023;BME280;31756;47.936;16.224;2023-01-30T06:51:59;98734.47;;;-5.17;100.00
46023;BME280;31756;47.936;16.224;2023-01-30T06:54:24;98723.50;;;-5.20;100.00
46023;BME280;31756;47.936;16.224;2023-01-30T06:56:50;98721.72;;;-5.23;100.00
46023;BME280;31756;47.936;16.224;2023-01-30T06:59:15;98718.69;;;-5.16;100.00
46023;BME280;31756;47.936;16.224;2023-01-30T07:01:41;98721.13;;;-4.98;100.00
46023;BME280;31756;47.936;16.224;2023-01-30T07:04:06;98707.03;;;-4.96;100.00
46023;BME280;31756;47.936;16.224;2023-01-30T07:06:32;98726.25;;;-4.95;100.00
46023;BME280;31756;47.936;16.224;2023-01-30T07:08:57;98728.09;;;-4.91;100.00
46023;BME280;31756;47.936;16.224;2023-01-30T07:11:24;98722.63;;;-4.82;100.00
46023;BME280;31756;47.936;16.224;2023-01-30T07:13:49;98729.75;;;-4.72;100.00
46023;BME280;31756;47.936;16.224;2023-01-30T07:16:14;98726.78;;;-4.64;100.00
46023;BME280;31756;47.936;16.224;2023-01-30T07:18:40;98733.66;;;-4.58;100.00
46023;BME280;31756;47.936;16.224;2023-01-30T07:21:06;98720.69;;;-4.49;100.00
46023;BME280;31756;47.936;16.224;2023-01-30T07:23:34;98726.72;;;-4.44;100.00
46023;BME280;31756;47.936;16.224;2023-01-30T07:26:03;98725.41;;;-4.36;100.00
46023;BME280;31756;47.936;16.224;2023-01-30T07:28:29;98724.97;;;-4.26;100.00
46023;BME280;31756;47.936;16.224;2023-01-30T07:30:57;98719.72;;;-4.11;100.00
46023;BME280;31756;47.936;16.224;2023-01-30T07:33:22;98719.91;;;-4.07;100.00
46023;BME280;31756;47.936;16.224;2023-01-30T07:35:48;98726.13;;;-3.97;100.00
46023;BME280;31756;47.936;16.224;2023-01-30T07:38:13;98730.66;;;-3.89;100.00
46023;BME280;31756;47.936;16.224;2023-01-30T07:40:39;98727.72;;;-3.79;100.00
46023;BME280;31756;47.936;16.224;2023-01-30T07:43:06;98724.19;;;-3.61;100.00
46023;BME280;31756;47.936;16.224;2023-01-30T07:45:45;98715.53;;;-3.47;100.00
46023;BME280;31756;47.936;16.224;2023-01-30T07:48:12;98725.34;;;-3.31;100.00
46023;BME280;31756;47.936;16.224;2023-01-30T07:50:38;98736.03;;;-3.13;100.00
46023;BME280;31756;47.936;16.224;2023-01-30T07:53:04;98747.31;;;-3.02;100.00
46023;BME280;31756;47.936;16.224;2023-01-30T07:55:30;98748.53;;;-2.91;100.00
46023;BME280;31756;47.936;16.224;2023-01-30T07:57:55;98741.66;;;-2.72;100.00
46023;BME280;31756;47.936;16.224;2023-01-30T08:00:21;98737.31;;;-2.53;100.00
46023;BME280;31756;47.936;16.224;2023-01-30T08:02:47;98735.88;;;-2.46;100.00
46023;BME280;31756;47.936;16.224;2023-01-30T08:05:12;98733.06;;;-2.30;100.00
46023;BME280;31756;47.936;16.224;2023-01-30T08:07:38;98731.25;;;-2.09;100.00
46023;BME280;31756;47.936;16.224;2023-01-30T08:10:04;98724.59;;;-2.07;100.00
46023;BME280;31756;47.936;16.224;2023-01-30T08:12:30;98718.13;;;-2.00;100.00
46023;BME280;31756;47.936;16.224;2023-01-30T08:14:55;98731.03;;;-1.90;100.00
46023;BME280;31756;47.936;16.224;2023-01-30T08:17:21;98726.06;;;-1.88;100.00
46023;BME280;31756;47.936;16.224;2023-01-30T08:19:47;98717.91;;;-1.81;100.00
46023;BME280;31756;47.936;16.224;2023-01-30T08:22:13;98710.50;;;-1.76;100.00
46023;BME280;31756;47.936;16.224;2023-01-30T08:24:38;98707.81;;;-1.82;100.00
46023;BME280;31756;47.936;16.224;2023-01-30T08:27:04;98693.47;;;-1.85;100.00
46023;BME280;31756;47.936;16.224;2023-01-30T08:29:30;98692.03;;;-1.78;100.00
46023;BME280;31756;47.936;16.224;2023-01-30T08:31:58;98692.13;;;-1.74;100.00
46023;BME280;31756;47.936;16.224;2023-01-30T08:34:24;98673.03;;;-1.69;100.00
46023;BME280;31756;47.936;16.224;2023-01-30T08:36:50;98678.13;;;-1.67;100.00
46023;BME280;31756;47.936;16.224;2023-01-30T08:39:15;98676.00;;;-1.54;100.00
46023;BME280;31756;47.936;16.224;2023-01-30T08:41:41;98667.81;;;-1.47;100.00
46023;BME280;31756;47.936;16.224;2023-01-30T08:44:10;98670.28;;;-1.48;100.00
46023;BME280;31756;47.936;16.224;2023-01-30T08:46:36;98666.59;;;-1.31;100.00
46023;BME280;31756;47.936;16.224;2023-01-30T08:49:01;98669.81;;;-1.07;100.00
46023;BME280;31756;47.936;16.224;2023-01-30T08:51:27;98660.81;;;-0.99;100.00
46023;BME280;31756;47.936;16.224;2023-01-30T08:53:52;98661.00;;;-0.58;100.00
46023;BME280;31756;47.936;16.224;2023-01-30T08:56:18;98661.28;;;-0.48;100.00
46023;BME280;31756;47.936;16.224;2023-01-30T08:58:43;98649.34;;;-0.20;100.00
46023;BME280;31756;47.936;16.224;2023-01-30T09:01:11;98647.09;;;-0.10;100.00
46023;BME280;31756;47.936;16.224;2023-01-30T09:03:36;98631.59;;;0.50;100.00
46023;BME280;31756;47.936;16.224;2023-01-30T09:06:02;98628.94;;;1.31;100.00
46023;BME280;31756;47.936;16.224;2023-01-30T09:08:28;98619.97;;;1.50;100.00
46023;BME280;31756;47.936;16.224;2023-01-30T09:11:00;98624.16;;;1.48;100.00
46023;BME280;31756;47.936;16.224;2023-01-30T09:13:26;98629.50;;;1.64;100.00
46023;BME280;31756;47.936;16.224;2023-01-30T09:15:52;98613.28;;;1.52;100.00
46023;BME280;31756;47.936;16.224;2023-01-30T09:18:17;98618.97;;;1.38;100.00
46023;BME280;31756;47.936;16.224;2023-01-30T09:20:43;98622.88;;;1.21;100.00
46023;BME280;31756;47.936;16.224;2023-01-30T09:23:08;98622.75;;;1.15;100.00
46023;BME280;31756;47.936;16.224;2023-01-30T09:25:34;98612.91;;;1.29;100.00
46023;BME280;31756;47.936;16.224;2023-01-30T09:27:59;98604.13;;;1.57;100.00
46023;BME280;31756;47.936;16.224;2023-01-30T09:30:25;98613.19;;;1.44;100.00
46023;BME280;31756;47.936;16.224;2023-01-30T09:32:50;98610.44;;;1.84;100.00
46023;BME280;31756;47.936;16.224;2023-01-30T09:35:16;98590.28;;;2.52;100.00
46023;BME280;31756;47.936;16.224;2023-01-30T09:37:48;98599.56;;;2.50;100.00
46023;BME280;31756;47.936;16.224;2023-01-30T09:40:19;98587.72;;;2.49;100.00
46023;BME280;31756;47.936;16.224;2023-01-30T09:42:58;98604.50;;;2.41;100.00
46023;BME280;31756;47.936;16.224;2023-01-30T09:45:39;98590.13;;;2.40;100.00
46023;BME280;31756;47.936;16.224;2023-01-30T09:53:18;98573.19;;;3.10;100.00
46023;BME280;31756;47.936;16.224;2023-01-30T09:55:46;98575.41;;;2.78;100.00
46023;BME280;31756;47.936;16.224;2023-01-30T09:58:20;98565.69;;;2.41;100.00
46023;BME280;31756;47.936;16.224;2023-01-30T10:00:47;98547.91;;;2.33;100.00
46023;BME280;31756;47.936;16.224;2023-01-30T10:03:15;98544.03;;;1.96;100.00
46023;BME280;31756;47.936;16.224;2023-01-30T10:10:41;98526.69;;;1.08;100.00
46023;BME280;31756;47.936;16.224;2023-01-30T10:15:51;98500.78;;;1.19;100.00
46023;BME280;31756;47.936;16.224;2023-01-30T10:25:57;98480.34;;;1.58;100.00
46023;BME280;31756;47.936;16.224;2023-01-30T10:28:31;98467.19;;;1.83;100.00
46023;BME280;31756;47.936;16.224;2023-01-30T10:30:59;98454.97;;;2.18;100.00
46023;BME280;31756;47.936;16.224;2023-01-30T10:33:27;98455.41;;;2.59;100.00
46023;BME280;31756;47.936;16.224;2023-01-30T10:35:58;98448.00;;;2.81;100.00
46023;BME280;31756;47.936;16.224;2023-01-30T10:39:09;98453.34;;;3.15;100.00
46023;BME280;31756;47.936;16.224;2023-01-30T10:44:03;98433.09;;;3.12;100.00
46023;BME280;31756;47.936;16.224;2023-01-30T10:49:00;98415.41;;;3.23;100.00
46023;BME280;31756;47.936;16.224;2023-01-30T10:57:31;98413.09;;;3.61;100.00
46023;BME280;31756;47.936;16.224;2023-01-30T11:00:04;98397.91;;;3.62;100.00
46023;BME280;31756;47.936;16.224;2023-01-30T11:05:03;98379.44;;;3.97;100.00
46023;BME280;31756;47.936;16.224;2023-01-30T11:07:37;98371.00;;;4.04;100.00
46023;BME280;31756;47.936;16.224;2023-01-30T11:10:13;98368.44;;;3.93;100.00
46023;BME280;31756;47.936;16.224;2023-01-30T11:12:39;98364.16;;;3.79;100.00
46023;BME280;31756;47.936;16.224;2023-01-30T11:15:05;98354.09;;;3.94;100.00
46023;BME280;31756;47.936;16.224;2023-01-30T11:17:37;98346.44;;;3.83;100.00
46023;BME280;31756;47.936;16.224;2023-01-30T11:20:08;98353.97;;;3.66;100.00
46023;BME280;31756;47.936;16.224;2023-01-30T11:22:36;98346.38;;;3.60;100.00
46023;BME280;31756;47.936;16.224;2023-01-30T11:25:08;98334.47;;;3.43;100.00
46023;BME280;31756;47.936;16.224;2023-01-30T11:27:35;98335.28;;;3.34;100.00
46023;BME280;31756;47.936;16.224;2023-01-30T11:30:16;98326.84;;;3.38;100.00
46023;BME280;31756;47.936;16.224;2023-01-30T11:32:42;98338.59;;;3.21;100.00
46023;BME280;31756;47.936;16.224;2023-01-30T11:37:43;98336.94;;;3.29;100.00
46023;BME280;31756;47.936;16.224;2023-01-30T11:42:49;98306.75;;;4.67;100.00
46023;BME280;31756;47.936;16.224;2023-01-30T11:45:15;98298.31;;;4.88;100.00
46023;BME280;31756;47.936;16.224;2023-01-30T11:47:54;98298.19;;;5.18;100.00
46023;BME280;31756;47.936;16.224;2023-01-30T11:50:20;98282.78;;;5.62;100.00
46023;BME280;31756;47.936;16.224;2023-01-30T11:52:48;98264.00;;;5.89;100.00
46023;BME280;31756;47.936;16.224;2023-01-30T11:55:15;98279.91;;;6.21;100.00
46023;BME280;31756;47.936;16.224;2023-01-30T11:57:46;98269.72;;;6.23;100.00
46023;BME280;31756;47.936;16.224;2023-01-30T12:00:17;98252.66;;;6.34;99.21
46023;BME280;31756;47.936;16.224;2023-01-30T12:02:44;98248.38;;;6.40;100.00
46023;BME280;31756;47.936;16.224;2023-01-30T12:07:46;98242.91;;;6.77;99.59
46023;BME280;31756;47.936;16.224;2023-01-30T12:12:50;98219.69;;;7.04;95.30
46023;BME280;31756;47.936;16.224;2023-01-30T12:15:27;98212.91;;;7.00;96.40
46023;BME280;31756;47.936;16.224;2023-01-30T12:25:24;98182.16;;;7.17;94.13
46023;BME280;31756;47.936;16.224;2023-01-30T12:30:21;98156.56;;;7.21;97.01
46023;BME280;31756;47.936;16.224;2023-01-30T12:32:57;98157.53;;;7.14;97.01
46023;BME280;31756;47.936;16.224;2023-01-30T12:35:27;98149.94;;;7.10;98.54
46023;BME280;31756;47.936;16.224;2023-01-30T12:37:59;98157.56;;;7.13;99.23
46023;BME280;31756;47.936;16.224;2023-01-30T12:48:26;98155.75;;;7.21;96.43
46023;BME280;31756;47.936;16.224;2023-01-30T13:06:48;98166.47;;;6.77;99.76
46023;BME280;31756;47.936;16.224;2023-01-30T13:12:11;98185.22;;;6.73;100.00
46023;BME280;31756;47.936;16.224;2023-01-30T13:14:49;98190.41;;;6.64;100.00
46023;BME280;31756;47.936;16.224;2023-01-30T13:27:27;98227.34;;;6.16;100.00
46023;BME280;31756;47.936;16.224;2023-01-30T13:29:53;98229.09;;;6.11;100.00
46023;BME280;31756;47.936;16.224;2023-01-30T13:34:57;98243.53;;;6.06;100.00
46023;BME280;31756;47.936;16.224;2023-01-30T13:37:23;98242.69;;;6.04;100.00
46023;BME280;31756;47.936;16.224;2023-01-30T13:39:54;98249.50;;;5.98;100.00
46023;BME280;31756;47.936;16.224;2023-01-30T13:45:05;98238.56;;;5.83;100.00
46023;BME280;31756;47.936;16.224;2023-01-30T13:52:26;98231.78;;;5.82;100.00
46023;BME280;31756;47.936;16.224;2023-01-30T13:59:54;98243.88;;;5.46;100.00
46023;BME280;31756;47.936;16.224;2023-01-30T14:02:24;98247.38;;;5.20;100.00
46023;BME280;31756;47.936;16.224;2023-01-30T14:04:53;98273.72;;;4.99;100.00
46023;BME280;31756;47.936;16.224;2023-01-30T14:07:38;98266.16;;;4.69;100.00
46023;BME280;31756;47.936;16.224;2023-01-30T14:10:14;98274.63;;;4.46;100.00
46023;BME280;31756;47.936;16.224;2023-01-30T14:17:37;98279.66;;;3.72;100.00
46023;BME280;31756;47.936;16.224;2023-01-30T14:20:04;98258.47;;;3.49;100.00
46023;BME280;31756;47.936;16.224;2023-01-30T14:22:55;98259.25;;;3.33;100.00
46023;BME280;31756;47.936;16.224;2023-01-30T14:28:37;98261.75;;;3.20;100.00
46023;BME280;31756;47.936;16.224;2023-01-30T14:36:27;98252.50;;;3.30;100.00
46023;BME280;31756;47.936;16.224;2023-01-30T14:38:34;98237.34;;;3.42;100.00
46023;BME280;31756;47.936;16.224;2023-01-30T14:43:35;98230.63;;;3.52;100.00
46023;BME280;31756;47.936;16.224;2023-01-30T14:56:42;98195.16;;;3.72;100.00
46023;BME280;31756;47.936;16.224;2023-01-30T14:59:20;98191.78;;;3.80;100.00
46023;BME280;31756;47.936;16.224;2023-01-30T15:04:32;98198.56;;;3.98;100.00
46023;BME280;31756;47.936;16.224;2023-01-30T15:07:04;98224.75;;;4.09;100.00
46023;BME280;31756;47.936;16.224;2023-01-30T15:09:32;98219.66;;;4.21;100.00
46023;BME280;31756;47.936;16.224;2023-01-30T15:14:34;98235.75;;;4.40;100.00
46023;BME280;31756;47.936;16.224;2023-01-30T15:17:10;98229.81;;;4.39;100.00
46023;BME280;31756;47.936;16.224;2023-01-30T15:19:49;98247.56;;;4.39;100.00
46023;BME280;31756;47.936;16.224;2023-01-30T15:32:30;98250.97;;;4.05;100.00
46023;BME280;31756;47.936;16.224;2023-01-30T15:35:00;98253.50;;;4.09;100.00
46023;BME280;31756;47.936;16.224;2023-01-30T15:37:36;98261.97;;;4.05;100.00
46023;BME280;31756;47.936;16.224;2023-01-30T15:50:54;98225.59;;;3.81;100.00